Time;durP1;ratioP1;P1;durP2;ratioP2;P2;SDS_P1;SDS_P2;PMS_P1;PMS_P2;Temp;Humidity;BMP_temperature;BMP_pressure;BME280_temperature;BME280_humidity;BME280_pressure;Samples;Min_cycle;Max_cycle;Signal;HPM_P1;HPM_P2
2023/12/02 00:00:19;;;;;;;24.13;10.03;;;-2.20;99.90;;;;;;4240664;27;20491;-80
2023/12/02 00:02:20;;;;;;;23.37;9.80;;;-2.20;99.90;;;;;;4241627;27;20438;-79
2023/12/02 00:04:22;;;;;;;24.33;9.30;;;-2.20;99.90;;;;;;4242897;27;20489;-80
2023/12/02 00:06:24;;;;;;;24.27;11.17;;;-2.20;99.90;;;;;;4246180;27;20456;-79
2023/12/02 00:08:27;;;;;;;22.03;10.07;;;-2.20;99.90;;;;;;4244641;27;20453;-79
2023/12/02 00:10:29;;;;;;;22.13;9.67;;;-2.10;99.90;;;;;;4242168;27;20447;-79
2023/12/02 00:12:30;;;;;;;27.77;11.60;;;-2.30;99.90;;;;;;4246855;27;20448;-80
2023/12/02 00:14:32;;;;;;;25.30;10.97;;;-2.20;99.90;;;;;;4235530;28;20453;-80
2023/12/02 00:16:34;;;;;;;24.53;10.50;;;-2.20;99.90;;;;;;4239649;27;20213;-79
2023/12/02 00:18:36;;;;;;;27.20;10.87;;;-2.30;99.90;;;;;;4235716;27;20448;-80
2023/12/02 00:20:38;;;;;;;26.43;10.60;;;-2.30;99.90;;;;;;4234737;28;20505;-79
2023/12/02 00:22:39;;;;;;;22.53;10.23;;;-2.20;99.90;;;;;;4240247;27;21030;-79
2023/12/02 00:24:42;;;;;;;22.40;10.17;;;-2.20;99.90;;;;;;4231693;28;20440;-79
2023/12/02 00:26:44;;;;;;;23.33;9.97;;;-2.20;99.90;;;;;;4244931;27;20226;-79
2023/12/02 00:28:46;;;;;;;21.07;8.97;;;-2.10;99.90;;;;;;4240368;28;20511;-80
2023/12/02 00:30:48;;;;;;;22.17;9.70;;;-2.20;99.90;;;;;;4238326;28;20456;-80
2023/12/02 00:32:50;;;;;;;26.20;10.03;;;-2.30;99.90;;;;;;4238119;28;20495;-80
2023/12/02 00:34:52;;;;;;;22.97;9.50;;;-2.30;99.90;;;;;;4236906;28;20450;-79
2023/12/02 00:36:54;;;;;;;21.50;8.93;;;-2.30;99.90;;;;;;4232004;28;20789;-80
2023/12/02 00:38:55;;;;;;;23.70;9.70;;;-2.30;99.90;;;;;;4239065;27;21211;-80
2023/12/02 00:40:59;;;;;;;23.53;9.13;;;-2.20;99.90;;;;;;4239422;28;20451;-79
2023/12/02 00:43:01;;;;;;;23.03;10.13;;;-2.30;99.90;;;;;;4233490;28;20491;-79
2023/12/02 00:45:03;;;;;;;26.87;10.30;;;-2.40;99.90;;;;;;4237293;28;20854;-79
2023/12/02 00:47:05;;;;;;;21.50;9.60;;;-2.30;99.90;;;;;;4234284;28;20508;-79
2023/12/02 00:49:07;;;;;;;25.00;10.73;;;-2.40;99.90;;;;;;4236800;27;20475;-79
2023/12/02 00:51:09;;;;;;;26.43;10.20;;;-2.40;99.90;;;;;;4236518;28;20486;-80
2023/12/02 00:53:11;;;;;;;24.87;9.67;;;-2.40;99.90;;;;;;4233190;28;20476;-79
2023/12/02 00:55:12;;;;;;;23.10;9.53;;;-2.40;99.90;;;;;;4237556;27;20791;-79
2023/12/02 00:57:15;;;;;;;24.73;10.43;;;-2.40;99.90;;;;;;4234058;28;20499;-79
2023/12/02 00:59:17;;;;;;;28.03;10.57;;;-2.40;99.90;;;;;;4236486;28;20220;-80
2023/12/02 01:01:19;;;;;;;29.27;11.43;;;-2.40;99.90;;;;;;4237805;28;20590;-79
2023/12/02 01:03:21;;;;;;;28.43;10.90;;;-2.40;99.90;;;;;;4232015;28;20492;-80
2023/12/02 01:05:23;;;;;;;27.70;10.90;;;-2.40;99.90;;;;;;4234715;28;20456;-80
2023/12/02 01:07:25;;;;;;;25.57;10.63;;;-2.40;99.90;;;;;;4240037;27;20505;-79
2023/12/02 01:09:27;;;;;;;23.20;10.27;;;-2.40;99.90;;;;;;4235202;27;20459;-80
2023/12/02 01:11:29;;;;;;;26.07;11.20;;;-2.40;99.90;;;;;;4238920;27;20437;-79
2023/12/02 01:13:33;;;;;;;30.73;12.23;;;-2.40;99.90;;;;;;4236763;27;21114;-80
2023/12/02 01:15:35;;;;;;;28.73;11.03;;;-2.50;99.90;;;;;;4243993;27;20505;-80
2023/12/02 01:17:37;;;;;;;26.27;10.80;;;-2.50;99.90;;;;;;4241820;27;20800;-79
2023/12/02 01:19:39;;;;;;;27.10;11.67;;;-2.50;99.90;;;;;;4242644;27;20485;-79
2023/12/02 01:21:41;;;;;;;28.93;12.03;;;-2.50;99.90;;;;;;4237012;27;20465;-80
2023/12/02 01:23:43;;;;;;;29.30;11.43;;;-2.50;99.90;;;;;;4237453;27;20502;-80
2023/12/02 01:25:44;;;;;;;29.77;12.20;;;-2.50;99.90;;;;;;4242328;27;21025;-79
2023/12/02 01:27:46;;;;;;;31.20;11.73;;;-2.50;99.90;;;;;;4239747;27;20492;-79
2023/12/02 01:29:50;;;;;;;32.80;12.87;;;-2.50;99.90;;;;;;4239269;27;20861;-79
2023/12/02 01:31:52;;;;;;;29.07;11.60;;;-2.50;99.90;;;;;;4242446;27;21170;-79
2023/12/02 01:33:54;;;;;;;27.33;11.83;;;-2.50;99.90;;;;;;4237378;27;20467;-80
2023/12/02 01:35:56;;;;;;;29.70;11.50;;;-2.50;99.90;;;;;;4243088;27;20526;-79
2023/12/02 01:37:56;;;;;;;28.70;11.70;;;-2.60;99.90;;;;;;4238537;27;20971;-79
2023/12/02 01:39:58;;;;;;;33.37;12.67;;;-2.60;99.90;;;;;;4246409;27;20462;-79
2023/12/02 01:42:00;;;;;;;26.73;11.60;;;-2.50;99.90;;;;;;4236925;27;20200;-79
2023/12/02 01:44:02;;;;;;;29.80;12.47;;;-2.50;99.90;;;;;;4239926;27;20439;-80
2023/12/02 01:46:06;;;;;;;25.83;11.83;;;-2.50;99.90;;;;;;4246481;27;20438;-79
2023/12/02 01:48:08;;;;;;;26.17;12.13;;;-1.90;99.90;;;;;;4239011;27;20466;-79
2023/12/02 01:50:11;;;;;;;26.93;11.40;;;-2.60;99.90;;;;;;4238328;27;20447;-79
2023/12/02 01:52:13;;;;;;;29.23;11.80;;;-2.60;99.90;;;;;;4242699;27;20870;-79
2023/12/02 01:54:14;;;;;;;29.70;12.40;;;-2.40;99.90;;;;;;4234311;27;20445;-79
2023/12/02 01:56:17;;;;;;;29.97;12.27;;;-2.60;99.90;;;;;;4242399;27;20447;-79
2023/12/02 01:58:18;;;;;;;27.97;12.53;;;-2.60;99.90;;;;;;4239879;27;20836;-79
2023/12/02 02:00:20;;;;;;;28.47;11.70;;;-2.60;99.90;;;;;;4239972;27;20479;-79
2023/12/02 02:02:25;;;;;;;28.97;11.63;;;-2.60;99.90;;;;;;4241500;27;20454;-79
2023/12/02 02:04:27;;;;;;;28.60;12.33;;;-2.70;99.90;;;;;;4239980;27;20460;-78
2023/12/02 02:06:29;;;;;;;30.03;12.03;;;-2.70;99.90;;;;;;4245305;27;20492;-79
2023/12/02 02:08:31;;;;;;;28.10;11.50;;;-2.70;99.90;;;;;;4243621;27;20473;-79
2023/12/02 02:10:33;;;;;;;28.43;11.77;;;-2.70;99.90;;;;;;4238158;27;20450;-79
2023/12/02 02:12:34;;;;;;;23.20;11.20;;;-2.70;99.90;;;;;;4239901;27;20438;-79
2023/12/02 02:14:35;;;;;;;26.13;11.37;;;-2.10;99.90;;;;;;4240453;27;20522;-79
2023/12/02 02:16:38;;;;;;;26.90;10.83;;;-2.80;99.90;;;;;;4242276;27;21485;-79
2023/12/02 02:18:41;;;;;;;30.73;12.17;;;-2.80;99.90;;;;;;4242530;27;20519;-79
2023/12/02 02:20:48;;;;;;;27.87;11.73;;;-2.80;99.90;;;;;;4244834;27;20488;-78
2023/12/02 02:22:52;;;;;;;28.53;11.80;;;-2.70;99.90;;;;;;4249498;27;20468;-78
2023/12/02 02:24:54;;;;;;;25.27;11.47;;;-2.80;99.90;;;;;;4247230;27;20451;-79
2023/12/02 02:26:56;;;;;;;27.87;10.93;;;-2.80;99.90;;;;;;4249488;27;20442;-78
2023/12/02 02:28:58;;;;;;;26.37;11.53;;;-2.80;99.90;;;;;;4254842;27;20464;-78
2023/12/02 02:31:00;;;;;;;27.43;11.57;;;-2.80;99.90;;;;;;4252975;27;20438;-78
2023/12/02 02:33:01;;;;;;;27.57;10.83;;;-2.80;99.90;;;;;;4248224;27;20569;-79
2023/12/02 02:35:03;;;;;;;26.23;11.40;;;-2.70;99.90;;;;;;4248815;27;20445;-79
2023/12/02 02:37:05;;;;;;;27.80;10.43;;;-2.80;99.90;;;;;;4242454;27;20469;-79
2023/12/02 02:39:10;;;;;;;28.27;11.13;;;-2.80;99.90;;;;;;4236730;27;20545;-79
2023/12/02 02:41:12;;;;;;;26.07;10.87;;;-2.80;99.90;;;;;;4240795;27;20485;-79
2023/12/02 02:43:14;;;;;;;26.17;11.07;;;-2.80;99.90;;;;;;4214878;28;20582;-79
2023/12/02 02:45:16;;;;;;;23.63;10.60;;;-2.80;99.90;;;;;;4239374;27;20434;-79
2023/12/02 02:47:18;;;;;;;29.57;11.47;;;-2.80;99.90;;;;;;4241588;27;20500;-79
2023/12/02 02:49:20;;;;;;;29.33;11.67;;;-2.90;99.90;;;;;;4236245;27;20992;-79
2023/12/02 02:51:23;;;;;;;29.60;11.73;;;-2.90;99.90;;;;;;4240350;27;20450;-79
2023/12/02 02:53:25;;;;;;;28.57;11.43;;;-2.90;99.90;;;;;;4245148;27;20980;-79
2023/12/02 02:55:28;;;;;;;28.33;11.47;;;-2.90;99.90;;;;;;4221004;28;20447;-79
2023/12/02 02:57:32;;;;;;;28.20;11.37;;;-2.90;99.90;;;;;;4218250;28;20466;-79
2023/12/02 02:59:34;;;;;;;27.10;11.33;;;-3.00;99.90;;;;;;4239618;27;20469;-79
2023/12/02 03:01:37;;;;;;;27.87;11.77;;;-3.00;99.90;;;;;;4240283;27;20478;-79
2023/12/02 03:03:39;;;;;;;27.57;11.27;;;-3.00;99.90;;;;;;4239174;27;20850;-79
2023/12/02 03:05:40;;;;;;;29.40;11.03;;;-3.10;99.90;;;;;;4235319;27;20441;-79
2023/12/02 03:07:42;;;;;;;31.77;11.70;;;-3.10;99.90;;;;;;4241454;27;20438;-79
2023/12/02 03:09:44;;;;;;;26.60;10.90;;;-3.10;99.90;;;;;;4240829;27;20231;-79
2023/12/02 03:11:48;;;;;;;27.17;11.63;;;-3.10;99.90;;;;;;4215483;28;20451;-79
2023/12/02 03:13:50;;;;;;;28.53;11.37;;;-3.10;99.90;;;;;;4239710;27;20465;-79
2023/12/02 03:15:55;;;;;;;27.67;11.17;;;-3.10;99.90;;;;;;4246241;27;20453;-79
2023/12/02 03:17:57;;;;;;;24.80;10.27;;;-3.10;99.90;;;;;;4245374;27;20434;-79
2023/12/02 03:19:59;;;;;;;29.43;11.70;;;-3.10;99.90;;;;;;4251273;27;20500;-79
2023/12/02 03:22:03;;;;;;;29.53;11.30;;;-3.20;99.90;;;;;;4248541;27;20446;-79
2023/12/02 03:24:07;;;;;;;26.13;11.00;;;-3.20;99.90;;;;;;4251939;27;20449;-78
2023/12/02 03:26:10;;;;;;;24.40;10.13;;;-3.20;99.90;;;;;;4235825;28;20438;-78
2023/12/02 03:28:14;;;;;;;31.03;11.80;;;-3.20;99.90;;;;;;4253019;27;20478;-79
2023/12/02 03:30:15;;;;;;;26.83;10.83;;;-3.20;99.90;;;;;;4249002;27;20450;-78
2023/12/02 03:32:17;;;;;;;26.40;11.10;;;-3.20;99.90;;;;;;4249896;27;20533;-79
2023/12/02 03:34:19;;;;;;;31.60;11.00;;;-3.20;99.90;;;;;;4234206;27;20868;-79
2023/12/02 03:36:21;;;;;;;25.23;10.27;;;-3.20;99.90;;;;;;4255431;27;20442;-79
2023/12/02 03:38:23;;;;;;;26.33;10.83;;;-3.10;99.90;;;;;;4249499;27;20453;-79
2023/12/02 03:40:25;;;;;;;23.83;10.47;;;-3.20;99.90;;;;;;4249941;27;20485;-78
2023/12/02 03:42:27;;;;;;;24.90;10.43;;;-3.10;99.90;;;;;;4242493;27;20484;-79
2023/12/02 03:44:29;;;;;;;26.43;10.60;;;-3.20;99.90;;;;;;4238003;27;20498;-79
2023/12/02 03:46:31;;;;;;;28.27;11.13;;;-3.20;99.90;;;;;;4238457;27;20788;-79
2023/12/02 03:48:32;;;;;;;22.87;10.20;;;-3.20;99.90;;;;;;4244065;27;20981;-79
2023/12/02 03:50:34;;;;;;;23.23;10.10;;;-3.10;99.90;;;;;;4239915;27;20533;-79
2023/12/02 03:52:36;;;;;;;26.57;10.77;;;-3.10;99.90;;;;;;4238644;27;20458;-79
2023/12/02 03:54:38;;;;;;;24.63;10.37;;;-3.20;99.90;;;;;;4237596;27;20450;-79
2023/12/02 03:56:40;;;;;;;25.50;10.33;;;-3.20;99.90;;;;;;4243860;27;20526;-79
2023/12/02 03:58:42;;;;;;;23.80;9.80;;;-3.10;99.90;;;;;;4244806;27;20464;-79
2023/12/02 04:00:46;;;;;;;25.10;10.50;;;-3.20;99.90;;;;;;4237114;27;20470;-79
2023/12/02 04:02:47;;;;;;;25.67;10.90;;;-3.20;99.90;;;;;;4250913;27;20485;-79
2023/12/02 04:04:49;;;;;;;22.87;9.60;;;-3.20;99.90;;;;;;4242953;27;20507;-79
2023/12/02 04:06:51;;;;;;;23.20;9.23;;;-3.40;99.90;;;;;;4245118;27;20207;-79
2023/12/02 04:08:53;;;;;;;23.60;9.90;;;-3.20;99.90;;;;;;4241549;27;20478;-79
2023/12/02 04:10:55;;;;;;;20.70;9.03;;;-3.20;99.90;;;;;;4243621;27;20445;-79
2023/12/02 04:12:57;;;;;;;23.53;9.70;;;-3.20;99.90;;;;;;4244492;27;20440;-79
2023/12/02 04:14:59;;;;;;;24.90;10.27;;;-3.20;99.90;;;;;;4234089;27;20434;-79
2023/12/02 04:17:01;;;;;;;22.87;9.57;;;-3.20;99.90;;;;;;4237368;27;20454;-79
2023/12/02 04:19:03;;;;;;;23.23;10.27;;;-3.20;99.90;;;;;;4226943;28;20478;-79
2023/12/02 04:21:08;;;;;;;26.47;10.47;;;-3.20;99.90;;;;;;4240153;28;20482;-79
2023/12/02 04:23:10;;;;;;;24.37;10.03;;;-3.20;99.90;;;;;;4216168;28;20512;-78
2023/12/02 04:25:12;;;;;;;26.80;9.87;;;-3.20;99.90;;;;;;4235356;28;20454;-79
2023/12/02 04:27:14;;;;;;;29.17;10.50;;;-3.20;99.90;;;;;;4242411;27;20446;-79
2023/12/02 04:29:16;;;;;;;25.03;9.67;;;-3.20;99.90;;;;;;4242053;28;20465;-79
2023/12/02 04:31:18;;;;;;;23.40;9.93;;;-2.80;99.90;;;;;;4242791;28;20469;-79
2023/12/02 04:33:21;;;;;;;24.00;9.80;;;-3.70;99.90;;;;;;4240486;27;20433;-79
2023/12/02 04:35:24;;;;;;;25.07;9.87;;;-3.20;99.90;;;;;;4225561;28;20449;-78
2023/12/02 04:37:25;;;;;;;26.27;10.43;;;-3.20;99.90;;;;;;4218277;28;21007;-79
2023/12/02 04:39:27;;;;;;;24.00;9.20;;;-3.20;99.90;;;;;;4237811;28;20520;-79
2023/12/02 04:41:29;;;;;;;26.13;10.57;;;-3.20;99.90;;;;;;4222190;28;20517;-79
2023/12/02 04:43:31;;;;;;;23.97;9.33;;;-3.10;99.90;;;;;;4247415;27;20437;-79
2023/12/02 04:45:32;;;;;;;27.60;10.87;;;-3.20;99.90;;;;;;4246091;27;20438;-79
2023/12/02 04:47:36;;;;;;;22.13;9.53;;;-3.20;99.90;;;;;;4254516;27;20486;-79
2023/12/02 04:49:40;;;;;;;27.47;11.07;;;-3.20;99.90;;;;;;4261890;27;20291;-79
2023/12/02 04:51:42;;;;;;;26.43;10.47;;;-3.20;99.90;;;;;;4257067;27;20437;-78
2023/12/02 04:53:44;;;;;;;26.00;10.47;;;-3.20;99.90;;;;;;4268115;27;20943;-79
2023/12/02 04:55:47;;;;;;;27.57;10.83;;;-3.20;99.90;;;;;;4262761;27;20508;-79
2023/12/02 04:57:49;;;;;;;24.77;10.13;;;-3.20;99.90;;;;;;4248877;27;20446;-79
2023/12/02 04:59:51;;;;;;;26.30;9.90;;;-3.20;99.90;;;;;;4238480;27;20449;-79
2023/12/02 05:01:54;;;;;;;24.50;10.03;;;-3.20;99.90;;;;;;4238511;27;20567;-79
2023/12/02 05:03:55;;;;;;;23.77;9.13;;;-3.20;99.90;;;;;;4238510;27;20445;-79
2023/12/02 05:05:59;;;;;;;26.13;10.37;;;-3.20;99.90;;;;;;4235167;27;20457;-79
2023/12/02 05:08:01;;;;;;;22.17;9.37;;;-3.20;99.90;;;;;;4247915;27;20441;-79
2023/12/02 05:10:04;;;;;;;25.30;10.07;;;-3.20;99.90;;;;;;4234813;27;20441;-79
2023/12/02 05:12:07;;;;;;;25.53;10.07;;;-3.20;99.90;;;;;;4239190;27;20465;-79
2023/12/02 05:14:09;;;;;;;24.90;9.97;;;-3.20;99.90;;;;;;4237300;27;20460;-79
2023/12/02 05:16:14;;;;;;;23.90;9.90;;;-3.20;99.90;;;;;;4242277;27;20460;-79
2023/12/02 05:18:16;;;;;;;24.10;9.77;;;-3.20;99.90;;;;;;4243163;27;20516;-79
2023/12/02 05:20:19;;;;;;;24.43;9.33;;;-3.20;99.90;;;;;;4236289;27;20803;-79
2023/12/02 05:22:22;;;;;;;25.20;9.97;;;-3.20;99.90;;;;;;4240332;27;20449;-79
2023/12/02 05:24:24;;;;;;;24.47;9.80;;;-3.20;99.90;;;;;;4243252;27;21053;-79
2023/12/02 05:26:26;;;;;;;23.60;9.47;;;-3.20;99.90;;;;;;4238901;27;20514;-79
2023/12/02 05:28:27;;;;;;;23.83;9.73;;;-3.20;99.90;;;;;;4241686;27;20811;-79
2023/12/02 05:30:29;;;;;;;24.00;9.83;;;-3.20;99.90;;;;;;4238554;27;20433;-79
2023/12/02 05:32:31;;;;;;;23.07;9.40;;;-3.20;99.90;;;;;;4237184;27;20505;-79
2023/12/02 05:34:34;;;;;;;21.33;9.47;;;-3.20;99.90;;;;;;4240628;27;20452;-79
2023/12/02 05:36:35;;;;;;;22.97;9.67;;;-3.20;99.90;;;;;;4238416;27;20436;-79
2023/12/02 05:38:39;;;;;;;21.50;9.07;;;-3.20;99.90;;;;;;4250684;27;20477;-79
2023/12/02 05:40:41;;;;;;;19.47;8.63;;;-3.20;99.90;;;;;;4236012;27;20865;-79
2023/12/02 05:42:42;;;;;;;23.67;9.77;;;-3.20;99.90;;;;;;4238277;27;20476;-79
2023/12/02 05:44:46;;;;;;;21.37;9.27;;;-3.20;99.90;;;;;;4235654;27;20489;-79
2023/12/02 05:46:48;;;;;;;22.43;8.83;;;-3.20;99.90;;;;;;4234166;27;20865;-79
2023/12/02 05:48:49;;;;;;;23.70;8.80;;;-2.80;99.90;;;;;;4235816;27;20965;-79
2023/12/02 05:50:51;;;;;;;19.30;8.43;;;-3.00;99.90;;;;;;4239607;27;20434;-79
2023/12/02 05:52:52;;;;;;;22.07;8.67;;;-2.30;99.90;;;;;;4238000;27;20637;-79
2023/12/02 05:54:56;;;;;;;24.10;9.37;;;-3.10;99.90;;;;;;4235853;27;20511;-79
2023/12/02 05:56:57;;;;;;;23.00;9.23;;;-3.10;99.90;;;;;;4235912;27;20442;-79
2023/12/02 05:58:59;;;;;;;23.33;9.93;;;-3.00;99.90;;;;;;4237669;27;21191;-79
2023/12/02 06:01:01;;;;;;;21.63;8.77;;;-3.10;99.90;;;;;;4235817;27;20528;-79
2023/12/02 06:03:03;;;;;;;21.50;8.97;;;-3.10;99.90;;;;;;4246500;27;20441;-79
2023/12/02 06:05:06;;;;;;;22.73;9.20;;;-3.10;99.90;;;;;;4233443;27;20523;-79
2023/12/02 06:07:08;;;;;;;23.37;9.70;;;-3.10;99.90;;;;;;4239258;27;20448;-79
2023/12/02 06:09:09;;;;;;;24.63;9.80;;;-3.10;99.90;;;;;;4242019;27;20470;-79
2023/12/02 06:11:13;;;;;;;27.03;9.33;;;-3.10;99.90;;;;;;4241088;27;20442;-79
2023/12/02 06:13:15;;;;;;;25.53;9.77;;;-3.10;99.90;;;;;;4235258;27;20981;-79
2023/12/02 06:15:17;;;;;;;23.87;9.80;;;-3.10;99.90;;;;;;4239035;27;20459;-79
2023/12/02 06:17:19;;;;;;;23.17;9.23;;;-3.10;99.90;;;;;;4238687;27;20434;-79
2023/12/02 06:19:21;;;;;;;21.53;9.00;;;-3.10;99.90;;;;;;4240512;27;20465;-79
2023/12/02 06:21:23;;;;;;;21.93;8.87;;;-3.10;99.90;;;;;;4234834;27;20486;-79
2023/12/02 06:23:24;;;;;;;27.20;9.57;;;-3.10;99.90;;;;;;4238555;27;20810;-79
2023/12/02 06:25:26;;;;;;;21.37;8.90;;;-3.10;99.90;;;;;;4234957;27;20449;-78
2023/12/02 06:27:29;;;;;;;20.63;8.97;;;-3.10;99.90;;;;;;4236914;27;20852;-79
2023/12/02 06:29:31;;;;;;;25.60;9.17;;;-3.10;99.90;;;;;;4235652;27;20484;-78
2023/12/02 06:31:33;;;;;;;24.93;9.50;;;-3.10;99.90;;;;;;4244638;27;20506;-79
2023/12/02 06:33:35;;;;;;;26.67;10.73;;;-3.20;99.90;;;;;;4240707;27;20548;-78
2023/12/02 06:35:37;;;;;;;26.23;10.03;;;-3.10;99.90;;;;;;4240660;27;20490;-79
2023/12/02 06:37:39;;;;;;;26.10;10.43;;;-3.20;99.90;;;;;;4233392;27;20529;-79
2023/12/02 06:39:41;;;;;;;24.50;10.13;;;-3.20;99.90;;;;;;4231870;27;21226;-79
2023/12/02 06:41:44;;;;;;;23.47;8.93;;;-3.20;99.90;;;;;;4240414;27;20478;-79
2023/12/02 06:43:48;;;;;;;22.53;9.50;;;-3.20;99.90;;;;;;4233391;27;20525;-79
2023/12/02 06:45:51;;;;;;;23.17;10.00;;;-3.00;99.90;;;;;;4232074;27;21253;-79
2023/12/02 06:47:53;;;;;;;24.30;9.60;;;-3.20;99.90;;;;;;4233678;27;20489;-79
2023/12/02 06:49:55;;;;;;;25.90;10.30;;;-3.00;99.90;;;;;;4235063;27;20884;-79
2023/12/02 06:51:57;;;;;;;26.03;9.83;;;-3.20;99.90;;;;;;4240394;27;21023;-79
2023/12/02 06:53:58;;;;;;;19.57;8.70;;;-3.20;99.90;;;;;;4242437;27;20450;-79
2023/12/02 06:56:00;;;;;;;24.40;9.67;;;-3.20;99.90;;;;;;4235285;27;20558;-78
2023/12/02 06:58:03;;;;;;;25.10;9.47;;;-3.20;99.90;;;;;;4247785;27;20453;-76
2023/12/02 07:00:10;;;;;;;21.93;9.13;;;-3.20;99.90;;;;;;4240197;27;20453;-76
2023/12/02 07:02:11;;;;;;;22.80;9.47;;;-3.20;99.90;;;;;;4239363;27;20537;-76
2023/12/02 07:04:16;;;;;;;27.47;9.50;;;-3.20;99.90;;;;;;4240669;27;20453;-77
2023/12/02 07:06:17;;;;;;;23.20;9.83;;;-3.20;99.90;;;;;;4240583;27;20939;-77
2023/12/02 07:08:18;;;;;;;26.47;10.20;;;-3.20;99.90;;;;;;4242043;27;20461;-77
2023/12/02 07:10:20;;;;;;;22.27;10.13;;;-3.20;99.90;;;;;;4241024;27;20208;-77
2023/12/02 07:12:22;;;;;;;24.20;9.73;;;-3.20;99.90;;;;;;4245470;27;20430;-76
2023/12/02 07:14:24;;;;;;;22.17;9.83;;;-3.20;99.90;;;;;;4243676;27;20435;-76
2023/12/02 07:16:28;;;;;;;23.00;9.17;;;-3.20;99.90;;;;;;4240830;27;20499;-76
2023/12/02 07:18:28;;;;;;;26.53;9.90;;;-3.20;99.90;;;;;;4245242;27;20465;-76
2023/12/02 07:20:30;;;;;;;24.93;10.93;;;-3.20;99.90;;;;;;4240528;27;20491;-78
2023/12/02 07:22:32;;;;;;;24.20;9.87;;;-3.20;99.90;;;;;;4243528;27;20224;-77
2023/12/02 07:24:34;;;;;;;26.87;11.50;;;-3.30;99.90;;;;;;4244247;27;20449;-76
2023/12/02 07:26:36;;;;;;;26.13;10.63;;;-3.30;99.90;;;;;;4252251;27;20453;-78
2023/12/02 07:28:38;;;;;;;27.20;10.60;;;-3.20;99.90;;;;;;4241095;27;20507;-77
2023/12/02 07:30:40;;;;;;;29.50;11.13;;;-3.20;99.90;;;;;;4237021;27;20465;-77
2023/12/02 07:32:46;;;;;;;31.47;11.73;;;-3.20;99.90;;;;;;4242094;27;20446;-77
2023/12/02 07:34:48;;;;;;;32.53;13.13;;;-3.20;99.90;;;;;;4240391;27;20453;-77
2023/12/02 07:36:52;;;;;;;30.73;12.37;;;-3.20;99.90;;;;;;4242488;27;20445;-77
2023/12/02 07:38:53;;;;;;;30.43;11.80;;;-3.20;99.90;;;;;;4237074;27;20469;-77
2023/12/02 07:40:55;;;;;;;30.13;11.70;;;-3.20;99.90;;;;;;4236520;27;20498;-79
2023/12/02 07:43:03;;;;;;;31.30;11.47;;;-3.20;99.90;;;;;;4238918;27;20539;-78
2023/12/02 07:45:06;;;;;;;31.07;12.10;;;-3.20;99.90;;;;;;4245148;27;20441;-77
2023/12/02 07:47:07;;;;;;;31.57;12.10;;;-3.20;99.90;;;;;;4239177;27;20441;-77
2023/12/02 07:49:10;;;;;;;26.90;11.33;;;-3.20;99.90;;;;;;4241265;27;20805;-77
2023/12/02 07:51:12;;;;;;;27.93;11.90;;;-3.20;99.90;;;;;;4241200;27;20505;-78
2023/12/02 07:53:14;;;;;;;31.90;12.57;;;-3.10;99.90;;;;;;4231813;27;20499;-77
2023/12/02 07:55:15;;;;;;;30.60;11.40;;;-3.20;99.90;;;;;;4238339;27;20450;-78
2023/12/02 07:57:17;;;;;;;37.57;12.50;;;-3.10;99.90;;;;;;4243153;27;20445;-76
2023/12/02 07:59:19;;;;;;;35.10;12.90;;;-3.10;99.90;;;;;;4237593;27;20612;-77
2023/12/02 08:01:21;;;;;;;36.03;12.57;;;-3.10;99.90;;;;;;4239802;27;20461;-77
2023/12/02 08:03:23;;;;;;;40.00;13.30;;;-3.10;99.90;;;;;;4242881;27;21067;-78
2023/12/02 08:05:25;;;;;;;29.93;12.23;;;-3.10;99.90;;;;;;4236084;27;20832;-78
2023/12/02 08:07:27;;;;;;;33.33;12.33;;;-3.10;99.90;;;;;;4239415;27;20943;-77
2023/12/02 08:09:29;;;;;;;31.63;12.40;;;-2.90;99.90;;;;;;4237356;27;20473;-79
2023/12/02 08:11:31;;;;;;;32.90;12.30;;;-3.10;99.90;;;;;;4240764;27;20442;-78
2023/12/02 08:13:33;;;;;;;30.50;11.30;;;-3.10;99.90;;;;;;4237359;27;20471;-79
2023/12/02 08:15:36;;;;;;;32.70;11.83;;;-3.10;99.90;;;;;;4237608;27;20491;-78
2023/12/02 08:17:37;;;;;;;32.30;12.77;;;-3.00;99.90;;;;;;4234716;27;20450;-79
2023/12/02 08:19:39;;;;;;;36.37;13.17;;;-3.10;99.90;;;;;;4237683;27;20467;-78
2023/12/02 08:21:43;;;;;;;30.30;11.73;;;-3.00;99.90;;;;;;4239009;27;20281;-79
2023/12/02 08:23:46;;;;;;;33.40;12.70;;;-3.00;99.90;;;;;;4235047;27;20834;-79
2023/12/02 08:25:47;;;;;;;33.27;12.53;;;-3.00;99.90;;;;;;4238709;27;20438;-81
2023/12/02 08:27:49;;;;;;;31.00;12.47;;;-3.00;99.90;;;;;;4238971;27;20446;-83
2023/12/02 08:29:51;;;;;;;33.13;13.40;;;-3.00;99.90;;;;;;4239337;28;20438;-82
2023/12/02 08:31:53;;;;;;;32.37;12.63;;;-3.00;99.90;;;;;;4242113;28;20459;-82
2023/12/02 08:33:55;;;;;;;37.00;12.93;;;-3.00;99.90;;;;;;4245627;27;20471;-80
2023/12/02 08:36:00;;;;;;;33.83;12.30;;;-2.90;99.90;;;;;;4244321;27;20450;-80
2023/12/02 08:38:03;;;;;;;32.23;12.57;;;-2.90;99.90;;;;;;4241398;28;20504;-81
2023/12/02 08:40:06;;;;;;;32.23;12.43;;;-2.90;99.90;;;;;;4239640;28;20472;-78
2023/12/02 08:42:08;;;;;;;29.87;10.90;;;-2.90;99.90;;;;;;4240412;28;20474;-79
2023/12/02 08:44:10;;;;;;;28.87;11.57;;;-2.90;99.90;;;;;;4240013;28;20466;-81
2023/12/02 08:46:15;;;;;;;31.93;11.50;;;-2.90;99.90;;;;;;4235321;27;20439;-79
2023/12/02 08:48:17;;;;;;;25.00;9.77;;;-2.80;99.90;;;;;;4237597;28;20474;-80
2023/12/02 08:50:19;;;;;;;26.57;10.70;;;-2.80;99.90;;;;;;4238639;28;20982;-82
2023/12/02 08:52:20;;;;;;;27.17;11.27;;;-2.80;99.90;;;;;;4245071;27;20441;-81
2023/12/02 08:54:26;;;;;;;29.40;11.07;;;-2.80;99.90;;;;;;4245579;28;20933;-82
2023/12/02 08:56:29;;;;;;;29.07;11.57;;;-2.80;99.90;;;;;;4239588;28;20196;-81
2023/12/02 08:58:31;;;;;;;32.93;12.00;;;-2.80;99.90;;;;;;4242781;27;20525;-81
2023/12/02 09:00:33;;;;;;;31.53;11.80;;;-2.70;99.90;;;;;;4245954;28;20833;-82
2023/12/02 09:02:35;;;;;;;29.63;11.60;;;-2.70;99.90;;;;;;4245264;28;20515;-80
2023/12/02 09:04:37;;;;;;;30.27;11.77;;;-2.70;99.90;;;;;;4240737;28;20490;-80
2023/12/02 09:06:39;;;;;;;34.80;12.90;;;-2.70;99.90;;;;;;4240480;28;21002;-81
2023/12/02 09:08:41;;;;;;;28.77;11.40;;;-2.70;99.90;;;;;;4243398;28;20462;-81
2023/12/02 09:10:43;;;;;;;33.27;12.17;;;-2.70;99.90;;;;;;4243921;27;20469;-80
2023/12/02 09:12:45;;;;;;;33.13;13.13;;;-2.70;99.90;;;;;;4243394;28;20445;-80
2023/12/02 09:15:00;;;;;;;34.93;13.10;;;-2.70;99.90;;;;;;4243524;28;20466;-81
2023/12/02 09:17:03;;;;;;;33.43;11.83;;;-2.80;99.90;;;;;;4244324;28;20915;-82
2023/12/02 09:19:29;;;;;;;38.93;13.57;;;-2.80;99.90;;;;;;4247439;28;20569;-83
2023/12/02 09:21:42;;;;;;;36.93;12.23;;;-2.80;99.90;;;;;;4249701;28;20874;-83
2023/12/02 09:23:47;;;;;;;44.53;14.47;;;-2.80;99.90;;;;;;4246620;27;20541;-82
2023/12/02 09:25:53;;;;;;;32.37;12.40;;;-2.70;99.90;;;;;;4244549;27;20443;-79
2023/12/02 09:28:21;;;;;;;40.33;14.80;;;-2.00;99.90;;;;;;4243257;27;20441;-82
2023/12/02 09:30:22;;;;;;;39.10;13.40;;;-2.70;99.90;;;;;;4247916;27;20478;-79
2023/12/02 09:32:45;;;;;;;40.97;14.47;;;-2.70;99.90;;;;;;4254702;27;20438;-84
2023/12/02 09:34:57;;;;;;;37.83;13.73;;;-2.60;99.90;;;;;;4252942;27;20213;-84
2023/12/02 09:37:02;;;;;;;41.13;14.30;;;-2.60;99.90;;;;;;4255233;27;20441;-81
2023/12/02 09:39:56;;;;;;;35.53;13.30;;;-2.60;99.90;;;;;;4254248;27;20557;-83
2023/12/02 09:42:04;;;;;;;34.60;12.73;;;-2.60;99.90;;;;;;4256553;27;20577;-81
2023/12/02 09:44:14;;;;;;;38.40;13.00;;;-2.60;99.90;;;;;;4254444;27;20535;-81
2023/12/02 09:46:29;;;;;;;36.33;13.10;;;-2.60;99.90;;;;;;4244987;27;20458;-81
2023/12/02 09:48:35;;;;;;;35.77;13.57;;;-2.60;99.90;;;;;;4244301;27;20471;-85
2023/12/02 09:50:50;;;;;;;33.27;12.70;;;-2.60;99.90;;;;;;4244696;27;20468;-81
2023/12/02 09:53:06;;;;;;;35.90;12.47;;;-1.40;99.90;;;;;;4246227;27;20672;-80
2023/12/02 09:55:16;;;;;;;33.13;11.90;;;-1.70;99.90;;;;;;4242012;27;20574;-80
2023/12/02 09:57:33;;;;;;;39.60;13.20;;;-2.50;99.90;;;;;;4245879;27;20805;-81
2023/12/02 09:59:40;;;;;;;32.27;12.43;;;-2.50;99.90;;;;;;4242673;27;20532;-81
2023/12/02 10:01:43;;;;;;;32.43;11.30;;;-2.50;99.90;;;;;;4240674;27;20447;-81
2023/12/02 10:04:01;;;;;;;30.30;11.53;;;-2.50;99.90;;;;;;4245036;27;20485;-84
2023/12/02 10:06:11;;;;;;;33.43;12.17;;;-2.60;99.90;;;;;;4241229;27;20462;-82
2023/12/02 10:08:26;;;;;;;31.67;11.33;;;-2.80;99.90;;;;;;4245475;27;20461;-80
2023/12/02 10:10:38;;;;;;;34.17;12.57;;;-2.60;99.90;;;;;;4242738;27;20445;-80
2023/12/02 10:12:53;;;;;;;32.90;11.53;;;-2.60;99.90;;;;;;4241054;27;20930;-80
2023/12/02 10:15:01;;;;;;;37.03;12.57;;;-2.70;99.90;;;;;;4237096;27;20470;-81
2023/12/02 10:17:04;;;;;;;32.03;11.70;;;-2.50;99.90;;;;;;4246931;27;20506;-81
2023/12/02 10:19:12;;;;;;;29.80;9.97;;;-2.70;99.90;;;;;;4247050;27;20554;-80
2023/12/02 10:21:16;;;;;;;29.33;10.60;;;-2.80;99.90;;;;;;4244339;27;20522;-80
2023/12/02 10:23:24;;;;;;;28.53;10.17;;;-2.90;99.90;;;;;;4239412;27;20475;-81
2023/12/02 10:25:34;;;;;;;29.03;10.60;;;-2.90;99.90;;;;;;4244280;27;20454;-81
2023/12/02 10:27:38;;;;;;;32.30;11.23;;;-2.90;99.90;;;;;;4248557;27;20430;-80